Time;durP1;ratioP1;P1;durP2;ratioP2;P2;SDS_P1;SDS_P2;PMS_P1;PMS_P2;Temp;Humidity;BMP_temperature;BMP_pressure;BME280_temperature;BME280_humidity;BME280_pressure;Samples;Min_cycle;Max_cycle;Signal;HPM_P1;HPM_P2
2022/05/17 00:02:04;;;;;;;1.63;1.53;;;18.80;65.20;;;;;;7379247;19;20341;-77
2022/05/17 00:04:30;;;;;;;2.30;1.75;;;18.80;65.30;;;;;;7380791;19;20324;-77
2022/05/17 00:06:56;;;;;;;2.38;1.70;;;18.80;65.30;;;;;;7378214;19;20312;-76
2022/05/17 00:09:22;;;;;;;1.52;1.42;;;18.80;65.60;;;;;;7379512;19;20348;-78
2022/05/17 00:11:48;;;;;;;2.00;1.73;;;18.70;66.00;;;;;;7381796;19;21033;-80
2022/05/17 00:14:14;;;;;;;2.35;1.80;;;18.60;66.60;;;;;;7392068;19;20341;-80
2022/05/17 00:16:40;;;;;;;1.80;1.50;;;18.60;66.90;;;;;;7379046;19;20304;-78
2022/05/17 00:19:06;;;;;;;2.10;1.50;;;18.50;67.00;;;;;;7379466;19;20343;-80
2022/05/17 00:21:31;;;;;;;1.80;1.70;;;18.40;67.30;;;;;;7375164;19;20880;-79
2022/05/17 00:23:57;;;;;;;2.80;1.60;;;18.50;66.90;;;;;;7378560;19;20321;-77
2022/05/17 00:26:23;;;;;;;2.20;1.60;;;18.50;66.90;;;;;;7376960;19;20317;-77
2022/05/17 00:28:48;;;;;;;2.78;1.70;;;18.50;67.00;;;;;;7378855;19;20370;-76
2022/05/17 00:31:14;;;;;;;2.20;1.80;;;18.40;67.00;;;;;;7378764;19;21010;-78
2022/05/17 00:33:39;;;;;;;1.85;1.60;;;18.40;67.30;;;;;;7378484;19;20347;-79
2022/05/17 00:36:05;;;;;;;2.22;1.63;;;18.40;67.40;;;;;;7374040;19;20365;-78
2022/05/17 00:38:31;;;;;;;5.93;1.70;;;18.30;68.00;;;;;;7379292;19;20346;-77
2022/05/17 00:40:56;;;;;;;2.88;1.88;;;18.30;67.80;;;;;;7373191;19;20304;-78
2022/05/17 00:44:42;;;;;;;4.40;1.70;;;18.30;67.90;;;;;;7383047;19;20395;-79
2022/05/17 00:46:17;;;;;;;2.50;1.60;;;18.30;67.80;;;;;;7274181;19;2004210;-77
2022/05/17 00:48:42;;;;;;;1.77;1.65;;;18.30;68.10;;;;;;7381008;19;20604;-82
2022/05/17 00:51:08;;;;;;;1.73;1.57;;;18.30;68.60;;;;;;7380541;19;20341;-79
2022/05/17 00:53:33;;;;;;;2.87;1.87;;;18.30;68.20;;;;;;7382199;19;20875;-81
2022/05/17 00:56:01;;;;;;;2.97;1.90;;;18.20;68.60;;;;;;7382421;19;20320;-77
2022/05/17 00:58:32;;;;;;;1.85;1.65;;;18.20;68.10;;;;;;7385071;19;20329;-80
2022/05/17 01:01:02;;;;;;;4.35;1.60;;;18.20;68.90;;;;;;7381183;19;20317;-80
2022/05/17 01:03:33;;;;;;;2.10;1.70;;;18.10;68.20;;;;;;7385161;19;21043;-80
2022/05/17 01:05:59;;;;;;;1.92;1.52;;;18.10;68.40;;;;;;7374998;19;20301;-80
2022/05/17 01:08:25;;;;;;;1.70;1.60;;;18.10;68.80;;;;;;7381001;19;20311;-81
2022/05/17 01:10:50;;;;;;;2.28;1.55;;;18.10;68.40;;;;;;7380719;19;20713;-77
2022/05/17 01:16:00;;;;;;;2.95;1.80;;;18.10;69.20;;;;;;7281765;19;2004389;-81
2022/05/17 01:18:29;;;;;;;4.27;1.63;;;18.10;69.30;;;;;;7386928;19;20404;-81
2022/05/17 01:20:56;;;;;;;3.92;1.80;;;18.00;70.00;;;;;;7383685;19;20340;-77
2022/05/17 01:23:22;;;;;;;2.17;1.75;;;18.00;69.60;;;;;;7387677;19;20329;-80
2022/05/17 01:25:47;;;;;;;6.40;1.80;;;18.00;69.70;;;;;;7387138;19;21120;-78
2022/05/17 01:28:18;;;;;;;2.73;1.87;;;18.00;69.70;;;;;;7388529;19;20399;-77
2022/05/17 01:30:44;;;;;;;3.67;1.90;;;17.90;70.50;;;;;;7386803;19;20859;-77
2022/05/17 01:33:14;;;;;;;4.63;1.97;;;17.90;71.20;;;;;;7384658;19;20337;-77
2022/05/17 01:35:39;;;;;;;3.47;1.70;;;17.80;70.90;;;;;;7390915;19;20343;-80
2022/05/17 01:38:05;;;;;;;3.90;1.80;;;17.80;71.40;;;;;;7386958;19;20397;-82
2022/05/17 01:40:31;;;;;;;2.72;1.90;;;17.70;71.10;;;;;;7386170;19;20382;-79
2022/05/17 01:42:56;;;;;;;2.43;2.03;;;17.70;70.70;;;;;;7384815;19;20416;-77
2022/05/17 01:45:22;;;;;;;2.33;1.70;;;17.70;71.10;;;;;;7388041;19;20376;-79
2022/05/17 01:47:47;;;;;;;1.98;1.77;;;17.70;71.10;;;;;;7388031;19;20312;-80
2022/05/17 01:50:13;;;;;;;2.00;1.80;;;17.70;71.50;;;;;;7389977;19;20380;-78
2022/05/17 01:52:39;;;;;;;2.50;2.00;;;17.70;71.60;;;;;;7389966;19;20328;-79
2022/05/17 01:55:05;;;;;;;4.38;2.05;;;17.70;71.60;;;;;;7384729;19;20812;-78
2022/05/17 01:57:30;;;;;;;3.40;1.88;;;17.60;72.20;;;;;;7386518;19;20333;-78
2022/05/17 01:59:56;;;;;;;2.47;1.90;;;17.50;72.60;;;;;;7381922;19;20316;-76
2022/05/17 02:02:22;;;;;;;3.50;2.00;;;17.50;72.70;;;;;;7380793;19;20928;-77
2022/05/17 02:04:47;;;;;;;2.20;1.77;;;17.50;72.40;;;;;;7378881;19;20316;-79
2022/05/17 02:07:13;;;;;;;2.47;1.65;;;17.50;71.80;;;;;;7380449;19;20344;-79
2022/05/17 02:09:39;;;;;;;1.95;1.80;;;17.50;72.40;;;;;;7385129;19;20321;-79
2022/05/17 02:12:05;;;;;;;2.40;1.70;;;17.50;72.00;;;;;;7379654;19;20297;-77
2022/05/17 02:14:31;;;;;;;4.80;2.00;;;17.60;72.20;;;;;;7384972;19;20309;-79
2022/05/17 02:16:59;;;;;;;3.50;2.17;;;17.60;72.60;;;;;;7380874;19;20851;-78
2022/05/17 02:19:25;;;;;;;2.97;1.60;;;17.60;72.30;;;;;;7383203;19;20293;-78
2022/05/17 02:21:51;;;;;;;2.90;1.98;;;17.60;72.60;;;;;;7381095;19;20320;-81
2022/05/17 02:24:16;;;;;;;1.90;1.67;;;17.60;72.30;;;;;;7385353;19;20358;-78
2022/05/17 02:26:42;;;;;;;2.72;2.00;;;17.50;72.70;;;;;;7389273;19;20896;-78
2022/05/17 02:29:08;;;;;;;2.90;1.83;;;17.50;72.80;;;;;;7389300;19;20460;-79
2022/05/17 02:31:34;;;;;;;4.15;1.92;;;17.50;72.70;;;;;;7382694;19;20334;-79
2022/05/17 02:34:00;;;;;;;1.80;1.67;;;17.50;73.10;;;;;;7388929;19;20875;-80
2022/05/17 02:36:26;;;;;;;3.03;1.80;;;17.50;72.70;;;;;;7388291;19;20337;-79
2022/05/17 02:38:53;;;;;;;3.50;1.83;;;17.50;72.80;;;;;;7388443;19;20324;-79
2022/05/17 02:41:19;;;;;;;1.80;1.70;;;17.50;73.00;;;;;;7398793;19;20670;-86
2022/05/17 02:43:45;;;;;;;2.17;1.97;;;17.40;73.60;;;;;;7390340;19;20361;-80
2022/05/17 02:46:11;;;;;;;4.65;2.05;;;17.50;73.40;;;;;;7393731;19;20770;-80
2022/05/17 02:48:37;;;;;;;1.60;1.50;;;17.50;73.40;;;;;;7401534;19;20455;-83
2022/05/17 02:51:16;;;;;;;2.47;2.00;;;17.50;73.00;;;;;;7396986;19;20329;-82
2022/05/17 02:53:42;;;;;;;2.67;1.90;;;17.40;73.50;;;;;;7392558;19;20348;-80
2022/05/17 02:56:08;;;;;;;2.10;1.90;;;17.40;74.30;;;;;;7383898;19;20305;-78
2022/05/17 02:58:33;;;;;;;2.10;1.90;;;17.40;74.30;;;;;;7385905;19;20990;-78
2022/05/17 03:00:59;;;;;;;2.57;1.90;;;17.40;73.90;;;;;;7382001;19;20324;-79
2022/05/17 03:03:25;;;;;;;2.60;1.70;;;17.40;74.20;;;;;;7386452;19;20324;-80
2022/05/17 03:05:51;;;;;;;2.00;1.80;;;17.40;74.10;;;;;;7388646;19;20344;-81
2022/05/17 03:08:16;;;;;;;1.77;1.67;;;17.30;74.80;;;;;;7370749;19;20337;-78
2022/05/17 03:10:43;;;;;;;1.73;1.63;;;17.30;74.70;;;;;;7385714;19;20301;-81
2022/05/17 03:13:12;;;;;;;4.30;2.00;;;17.30;74.40;;;;;;7391521;19;20792;-81
2022/05/17 03:15:38;;;;;;;2.53;2.10;;;17.30;75.60;;;;;;7395257;19;20332;-78
2022/05/17 03:18:03;;;;;;;4.37;1.97;;;17.30;74.90;;;;;;7389222;19;20385;-77
2022/05/17 03:20:29;;;;;;;4.13;2.22;;;17.10;74.60;;;;;;7383940;19;20404;-76
2022/05/17 03:22:55;;;;;;;4.40;1.80;;;17.00;75.60;;;;;;7386603;19;20316;-78
2022/05/17 03:25:20;;;;;;;2.87;1.80;;;17.10;75.80;;;;;;7387455;19;20355;-78
2022/05/17 03:27:46;;;;;;;3.17;1.88;;;17.10;75.20;;;;;;7392276;19;20352;-79
2022/05/17 03:30:12;;;;;;;1.90;1.70;;;17.20;76.00;;;;;;7393860;19;20316;-79
2022/05/17 03:32:38;;;;;;;3.13;1.70;;;17.20;76.10;;;;;;7380673;19;20782;-78
2022/05/17 03:35:04;;;;;;;1.90;1.70;;;17.20;76.60;;;;;;7381724;19;20358;-78
2022/05/17 03:37:29;;;;;;;3.05;1.85;;;17.20;76.50;;;;;;7384388;19;20993;-77
2022/05/17 03:39:55;;;;;;;2.00;1.80;;;17.20;76.70;;;;;;7381575;19;20319;-82
2022/05/17 03:42:20;;;;;;;2.70;1.88;;;17.20;77.10;;;;;;7385648;19;20321;-79
2022/05/17 03:44:46;;;;;;;2.97;1.80;;;17.20;76.50;;;;;;7383340;19;20880;-76
2022/05/17 03:47:11;;;;;;;2.07;1.77;;;17.20;76.50;;;;;;7383986;19;20355;-77
2022/05/17 03:49:41;;;;;;;2.55;1.75;;;17.30;76.80;;;;;;7385719;19;20328;-81
2022/05/17 03:52:08;;;;;;;2.40;2.10;;;17.20;77.40;;;;;;7385113;19;20325;-79
2022/05/17 03:54:34;;;;;;;2.35;2.03;;;17.10;76.60;;;;;;7383002;19;20330;-78
2022/05/17 03:56:59;;;;;;;1.88;1.77;;;17.00;77.90;;;;;;7376203;19;20333;-81
2022/05/17 03:59:26;;;;;;;1.70;1.60;;;17.00;79.10;;;;;;7380369;19;20811;-76
2022/05/17 04:01:51;;;;;;;2.27;1.83;;;17.00;79.60;;;;;;7374007;19;20368;-78
2022/05/17 04:04:17;;;;;;;2.33;2.00;;;17.00;80.20;;;;;;7382701;19;20309;-79
2022/05/17 04:06:43;;;;;;;4.22;2.22;;;17.00;81.00;;;;;;7380442;19;20393;-77
2022/05/17 04:09:10;;;;;;;2.37;1.90;;;17.00;82.50;;;;;;7381062;19;20352;-77
2022/05/17 04:11:36;;;;;;;2.17;1.98;;;17.00;84.00;;;;;;7377252;19;20366;-78
2022/05/17 04:14:02;;;;;;;4.15;2.10;;;16.80;85.60;;;;;;7382802;19;20345;-79
2022/05/17 04:16:35;;;;;;;4.60;1.90;;;16.80;87.90;;;;;;7390081;19;20313;-79
2022/05/17 04:19:00;;;;;;;5.28;2.20;;;16.70;90.20;;;;;;7407014;19;20328;-89
2022/05/17 04:21:26;;;;;;;2.28;2.08;;;16.70;90.70;;;;;;7413346;19;20352;-86
2022/05/17 04:23:52;;;;;;;3.10;2.10;;;16.50;92.10;;;;;;7413085;19;20317;-88
2022/05/17 04:26:18;;;;;;;2.45;2.25;;;16.40;94.40;;;;;;7410858;19;20630;-88
2022/05/17 04:28:45;;;;;;;2.92;2.03;;;16.30;99.10;;;;;;7411531;19;20414;-84
2022/05/17 04:31:10;;;;;;;2.63;2.20;;;16.30;99.90;;;;;;7409957;19;20321;-88
2022/05/17 04:33:36;;;;;;;11.33;2.53;;;16.20;99.90;;;;;;7412539;19;20336;-89
2022/05/17 04:36:02;;;;;;;2.75;2.33;;;16.20;99.90;;;;;;7406375;19;20321;-87
2022/05/17 04:38:28;;;;;;;2.78;2.33;;;16.00;99.90;;;;;;7393841;19;21246;-89
2022/05/17 04:40:54;;;;;;;2.70;2.30;;;15.90;99.90;;;;;;7412691;19;20307;-88
2022/05/17 04:43:21;;;;;;;3.38;2.40;;;15.70;99.90;;;;;;7409262;19;20348;-85
2022/05/17 04:45:46;;;;;;;2.80;2.50;;;15.40;99.90;;;;;;7400085;19;20300;-83
2022/05/17 04:48:14;;;;;;;3.07;2.40;;;15.30;99.90;;;;;;7388680;19;20325;-85
2022/05/17 04:50:40;;;;;;;4.47;2.87;;;15.00;99.90;;;;;;7407269;19;20321;-79
2022/05/17 04:53:06;;;;;;;4.68;2.67;;;14.80;99.90;;;;;;7391974;19;20320;-79
2022/05/17 04:55:31;;;;;;;2.95;2.63;;;14.70;99.90;;;;;;7394431;19;20354;-79
2022/05/17 04:57:57;;;;;;;2.60;2.20;;;14.60;99.90;;;;;;7390531;19;20873;-78
2022/05/17 05:00:24;;;;;;;2.60;2.40;;;14.70;99.90;;;;;;7387603;19;20352;-78
2022/05/17 05:02:49;;;;;;;3.92;2.78;;;14.60;99.90;;;;;;7366874;19;20697;-80
2022/05/17 05:05:15;;;;;;;3.20;2.60;;;14.70;99.90;;;;;;7395431;19;20380;-78
2022/05/17 05:07:41;;;;;;;3.90;2.95;;;14.50;99.90;;;;;;7397709;19;20368;-81
2022/05/17 05:10:07;;;;;;;3.40;2.47;;;14.40;99.90;;;;;;7387745;19;20343;-76
2022/05/17 05:12:33;;;;;;;4.43;2.90;;;14.40;99.90;;;;;;7386965;19;21071;-78
2022/05/17 05:15:00;;;;;;;4.40;2.57;;;14.40;99.90;;;;;;7382392;19;20313;-76
2022/05/17 05:17:36;;;;;;;3.65;2.75;;;14.40;99.90;;;;;;7365610;19;20405;-79
2022/05/17 05:20:02;;;;;;;3.15;2.58;;;14.40;99.90;;;;;;7278661;19;2004725;-75
2022/05/17 05:22:29;;;;;;;3.20;2.90;;;14.30;99.90;;;;;;7387021;19;20347;-79
2022/05/17 05:24:55;;;;;;;4.63;2.88;;;14.10;99.90;;;;;;7383467;19;20940;-80
2022/05/17 05:27:21;;;;;;;3.17;2.58;;;14.10;99.90;;;;;;7388914;19;20899;-76
2022/05/17 05:29:46;;;;;;;4.27;2.70;;;14.00;99.90;;;;;;7382077;19;20317;-77
2022/05/17 05:32:12;;;;;;;3.30;2.60;;;14.10;99.90;;;;;;7381248;19;20412;-80
2022/05/17 05:34:37;;;;;;;4.03;2.80;;;14.10;99.90;;;;;;7384634;19;22286;-76
2022/05/17 05:37:03;;;;;;;3.10;2.57;;;14.10;99.90;;;;;;7384378;19;20884;-79
2022/05/17 05:39:29;;;;;;;7.60;2.88;;;14.20;99.90;;;;;;7383055;19;20333;-77
2022/05/17 05:41:57;;;;;;;3.33;2.78;;;14.20;99.90;;;;;;7383100;19;20312;-76
2022/05/17 05:44:22;;;;;;;3.17;2.87;;;14.20;99.90;;;;;;7386048;19;20372;-78
2022/05/17 05:46:48;;;;;;;3.88;2.85;;;14.00;99.90;;;;;;7388038;19;20321;-78
2022/05/17 05:49:16;;;;;;;5.00;3.03;;;13.90;99.90;;;;;;7391752;19;20336;-78
2022/05/17 05:51:42;;;;;;;6.10;3.05;;;13.80;99.90;;;;;;7388079;19;20351;-78
2022/05/17 05:54:08;;;;;;;5.07;2.95;;;13.80;99.90;;;;;;7390260;19;20329;-78
2022/05/17 05:56:33;;;;;;;3.20;2.90;;;13.90;99.90;;;;;;7395617;19;20351;-81
2022/05/17 05:58:59;;;;;;;3.90;2.65;;;13.90;99.90;;;;;;7397239;19;20870;-79
2022/05/17 06:01:26;;;;;;;3.73;2.80;;;13.90;99.90;;;;;;7379011;19;20352;-77
2022/05/17 06:03:52;;;;;;;3.22;2.92;;;14.00;99.90;;;;;;7383411;19;20355;-78
2022/05/17 06:06:18;;;;;;;4.35;2.78;;;14.00;99.90;;;;;;7386583;19;20369;-76
2022/05/17 06:08:43;;;;;;;3.40;2.80;;;13.90;99.90;;;;;;7385780;19;20301;-80
2022/05/17 06:11:09;;;;;;;3.55;2.88;;;13.90;99.90;;;;;;7380018;19;20336;-77
2022/05/17 06:13:36;;;;;;;5.85;3.00;;;13.90;99.90;;;;;;7386406;19;20322;-77
2022/05/17 06:16:01;;;;;;;4.32;3.08;;;13.90;99.90;;;;;;7378410;19;20675;-77
2022/05/17 06:18:27;;;;;;;3.43;2.30;;;13.90;99.90;;;;;;7382400;19;20423;-77
2022/05/17 06:20:54;;;;;;;2.72;2.53;;;14.00;99.90;;;;;;7379382;19;20681;-77
2022/05/17 06:23:20;;;;;;;2.65;2.45;;;14.10;99.90;;;;;;7381136;19;20355;-78
2022/05/17 06:25:45;;;;;;;2.90;2.63;;;14.20;99.90;;;;;;7380519;19;20309;-77
2022/05/17 06:28:11;;;;;;;3.57;2.70;;;14.30;99.90;;;;;;7381369;19;20339;-78
2022/05/17 06:30:37;;;;;;;4.55;2.95;;;14.30;99.90;;;;;;7379765;19;21166;-77
2022/05/17 06:33:06;;;;;;;4.13;2.72;;;14.20;99.90;;;;;;7383067;19;20346;-80
2022/05/17 06:35:33;;;;;;;3.28;2.60;;;14.30;99.90;;;;;;7385529;19;20332;-78
2022/05/17 06:37:59;;;;;;;3.97;3.22;;;14.30;99.90;;;;;;7386027;19;20345;-83
2022/05/17 06:40:24;;;;;;;2.93;2.67;;;14.30;99.90;;;;;;7385523;19;20329;-80
2022/05/17 06:42:50;;;;;;;3.77;3.10;;;14.30;99.90;;;;;;7386382;19;20670;-78
2022/05/17 06:45:15;;;;;;;4.70;3.00;;;14.30;99.90;;;;;;7390609;19;20340;-80
2022/05/17 06:47:42;;;;;;;4.43;2.80;;;14.20;99.90;;;;;;7396999;19;20360;-78
2022/05/17 06:50:08;;;;;;;3.22;2.70;;;14.30;99.90;;;;;;7379584;19;20420;-78
2022/05/17 06:52:34;;;;;;;2.67;2.40;;;14.30;99.90;;;;;;7385848;19;20351;-77
2022/05/17 06:55:00;;;;;;;3.57;2.70;;;14.30;99.90;;;;;;7384062;19;20328;-80
2022/05/17 06:57:26;;;;;;;3.47;2.85;;;14.30;99.90;;;;;;7390980;19;20344;-82
2022/05/17 06:59:51;;;;;;;3.40;2.90;;;14.40;99.90;;;;;;7388624;19;20305;-79
2022/05/17 07:02:17;;;;;;;3.83;2.80;;;14.40;99.90;;;;;;7383575;19;20386;-79
2022/05/17 07:04:43;;;;;;;5.60;3.20;;;14.40;99.90;;;;;;7384279;19;20325;-80
2022/05/17 07:07:09;;;;;;;3.55;2.47;;;14.30;99.90;;;;;;7381092;19;20381;-77
2022/05/17 07:09:35;;;;;;;2.75;2.50;;;14.30;99.90;;;;;;7386257;19;20316;-79
2022/05/17 07:14:45;;;;;;;2.65;2.45;;;14.40;99.90;;;;;;7380332;19;20344;-78
2022/05/17 07:17:20;;;;;;;2.83;2.50;;;14.40;99.90;;;;;;7381212;19;20340;-77
2022/05/17 07:19:46;;;;;;;4.13;2.90;;;14.50;99.90;;;;;;7381130;19;20388;-74
2022/05/17 07:22:12;;;;;;;3.63;3.00;;;14.50;99.90;;;;;;7380380;19;20381;-78
2022/05/17 07:24:40;;;;;;;4.35;2.78;;;14.40;99.90;;;;;;7381352;19;20345;-76
2022/05/17 07:27:06;;;;;;;2.60;2.40;;;14.40;99.90;;;;;;7380861;19;20333;-77
2022/05/17 07:29:32;;;;;;;4.38;2.80;;;14.40;99.90;;;;;;7384801;19;20735;-77
2022/05/17 07:31:58;;;;;;;4.97;2.60;;;14.40;99.90;;;;;;7380550;19;20392;-75
2022/05/17 07:34:23;;;;;;;3.63;2.50;;;14.40;99.90;;;;;;7383523;19;20349;-78
2022/05/17 07:36:49;;;;;;;2.80;2.50;;;14.50;99.90;;;;;;7381465;19;20312;-74
2022/05/17 07:39:15;;;;;;;2.77;2.43;;;14.50;99.90;;;;;;7382936;19;21030;-77
2022/05/17 07:41:41;;;;;;;3.75;2.78;;;14.50;99.90;;;;;;7380719;19;20307;-75
2022/05/17 07:44:07;;;;;;;3.13;2.75;;;14.50;99.90;;;;;;7381286;19;20332;-76
2022/05/17 07:46:33;;;;;;;4.75;2.83;;;14.50;99.90;;;;;;7375443;19;20418;-77
2022/05/17 07:48:58;;;;;;;2.63;2.42;;;14.50;99.90;;;;;;7376440;19;21166;-77
2022/05/17 07:51:24;;;;;;;3.90;2.70;;;14.50;99.90;;;;;;7366186;19;20345;-77
2022/05/17 07:53:49;;;;;;;2.70;2.30;;;14.60;99.90;;;;;;7378274;19;20313;-75
2022/05/17 07:56:15;;;;;;;2.70;2.50;;;14.60;99.90;;;;;;7376788;19;20876;-77
2022/05/17 07:58:41;;;;;;;2.60;2.20;;;14.60;99.90;;;;;;7377773;19;20337;-79
2022/05/17 08:01:07;;;;;;;2.55;2.25;;;14.60;99.90;;;;;;7376912;19;20348;-73
2022/05/17 08:03:32;;;;;;;4.40;2.60;;;14.70;99.90;;;;;;7379419;19;20341;-76
2022/05/17 08:05:58;;;;;;;2.47;2.28;;;14.70;99.90;;;;;;7374972;19;20321;-79
2022/05/17 08:08:24;;;;;;;3.03;2.67;;;14.70;99.90;;;;;;7377431;19;20319;-78
2022/05/17 08:10:50;;;;;;;2.63;2.40;;;14.70;99.90;;;;;;7369741;19;20352;-76
2022/05/17 08:13:16;;;;;;;3.40;2.50;;;14.70;99.90;;;;;;7373049;19;20921;-76
2022/05/17 08:15:42;;;;;;;3.30;2.42;;;14.60;99.90;;;;;;7378296;19;20366;-77
2022/05/17 08:18:07;;;;;;;2.90;2.70;;;14.60;99.90;;;;;;7378610;19;20344;-73
2022/05/17 08:20:33;;;;;;;3.47;2.50;;;14.60;99.90;;;;;;7377377;19;20335;-77
2022/05/17 08:22:59;;;;;;;3.10;2.80;;;14.60;99.90;;;;;;7378816;19;20313;-78
2022/05/17 08:28:09;;;;;;;2.78;2.58;;;14.50;99.90;;;;;;7384302;19;20323;-76
2022/05/17 08:30:35;;;;;;;3.07;2.50;;;14.60;99.90;;;;;;7381600;19;20868;-76
2022/05/17 08:33:19;;;;;;;2.97;2.53;;;14.60;99.90;;;;;;7382070;19;20316;-76
2022/05/17 08:35:45;;;;;;;2.83;2.58;;;14.70;99.90;;;;;;7276258;19;2004336;-76
2022/05/17 08:38:13;;;;;;;2.30;2.10;;;14.80;99.90;;;;;;7378024;19;20336;-77
2022/05/17 08:41:13;;;;;;;3.35;2.50;;;14.90;99.90;;;;;;7377422;19;20864;-77
2022/05/17 08:44:00;;;;;;;2.75;2.30;;;15.00;99.90;;;;;;7276493;19;2004602;-77
2022/05/17 08:46:31;;;;;;;3.07;2.77;;;15.20;99.90;;;;;;7271666;19;2004465;-78
2022/05/17 08:49:18;;;;;;;3.65;2.53;;;15.30;99.90;;;;;;7381165;19;20312;-79
2022/05/17 08:51:54;;;;;;;3.15;2.75;;;15.40;99.90;;;;;;7273821;19;2004745;-76
2022/05/17 08:54:34;;;;;;;2.58;2.20;;;15.30;99.90;;;;;;7376919;19;20358;-78
2022/05/17 08:57:30;;;;;;;5.00;2.40;;;15.40;99.90;;;;;;7372687;19;21016;-76
2022/05/17 08:59:57;;;;;;;2.50;2.30;;;15.50;99.90;;;;;;7274582;19;2004108;-78
2022/05/17 09:02:30;;;;;;;2.72;2.20;;;15.60;99.90;;;;;;7379543;19;20864;-76
2022/05/17 09:04:56;;;;;;;2.28;2.08;;;15.50;99.90;;;;;;7380528;19;20316;-79
2022/05/17 09:07:29;;;;;;;2.63;2.33;;;15.70;99.90;;;;;;7394705;19;20329;-79
2022/05/17 09:10:03;;;;;;;2.65;2.40;;;15.80;99.90;;;;;;7293367;19;2011566;-76
2022/05/17 09:12:29;;;;;;;2.70;2.35;;;15.80;99.90;;;;;;7396342;19;20316;-78
2022/05/17 09:14:56;;;;;;;5.10;2.70;;;16.00;99.90;;;;;;7399866;19;20323;-81
2022/05/17 09:17:24;;;;;;;5.25;3.15;;;16.10;99.90;;;;;;7398269;19;20341;-77
2022/05/17 09:19:50;;;;;;;3.00;2.72;;;16.10;99.90;;;;;;7391534;19;20884;-77
2022/05/17 09:22:16;;;;;;;3.35;3.05;;;16.10;99.90;;;;;;7385584;19;20369;-77
2022/05/17 09:24:43;;;;;;;3.50;2.85;;;15.60;99.90;;;;;;7381269;19;20328;-78
2022/05/17 09:27:22;;;;;;;4.20;2.33;;;15.50;99.90;;;;;;7384350;19;20316;-76
2022/05/17 09:29:48;;;;;;;3.72;2.95;;;15.70;99.90;;;;;;7384420;19;20324;-77
2022/05/17 09:32:25;;;;;;;2.40;2.20;;;15.90;99.90;;;;;;7388561;19;20345;-77
2022/05/17 09:35:15;;;;;;;3.85;2.40;;;16.10;99.90;;;;;;7389828;19;20329;-77
2022/05/17 09:37:42;;;;;;;4.55;2.78;;;16.30;99.90;;;;;;7386948;19;20304;-79
2022/05/17 09:40:10;;;;;;;3.80;2.75;;;16.30;99.90;;;;;;7389608;19;20722;-76
2022/05/17 09:42:52;;;;;;;3.47;2.85;;;16.30;99.90;;;;;;7386727;19;20309;-78
2022/05/17 09:45:18;;;;;;;3.70;2.78;;;16.40;99.90;;;;;;7388331;19;20386;-77
2022/05/17 09:48:00;;;;;;;3.63;2.70;;;16.40;99.90;;;;;;7390919;19;20368;-79
2022/05/17 09:53:14;;;;;;;3.58;2.70;;;16.00;99.90;;;;;;7286949;19;2004365;-77
2022/05/17 09:55:43;;;;;;;4.95;2.67;;;15.90;99.90;;;;;;7392728;19;20316;-78
2022/05/17 09:58:27;;;;;;;5.07;3.10;;;15.90;99.90;;;;;;7396413;19;20408;-79
2022/05/17 10:00:54;;;;;;;4.15;2.90;;;16.00;99.90;;;;;;7293864;19;2004284;-78
2022/05/17 10:03:28;;;;;;;3.17;2.78;;;16.00;99.90;;;;;;7400456;19;20361;-80
2022/05/17 10:05:58;;;;;;;4.45;3.45;;;16.00;99.90;;;;;;7406100;19;20409;-79
2022/05/17 10:08:38;;;;;;;3.50;3.20;;;15.80;99.90;;;;;;7393724;19;20474;-79
2022/05/17 10:11:03;;;;;;;3.35;3.05;;;15.50;99.90;;;;;;7387550;19;20400;-78
2022/05/17 10:14:07;;;;;;;3.63;3.07;;;15.60;99.90;;;;;;7386677;19;20687;-78
2022/05/17 10:16:48;;;;;;;6.65;3.20;;;15.50;99.90;;;;;;7181406;19;2005294;-78
2022/05/17 10:19:18;;;;;;;4.07;3.20;;;15.50;99.90;;;;;;7287766;19;2004354;-77
2022/05/17 10:21:46;;;;;;;3.45;3.15;;;15.50;99.90;;;;;;7385682;19;20317;-79
2022/05/17 10:24:25;;;;;;;3.75;3.45;;;15.60;99.90;;;;;;7382638;19;20340;-78
2022/05/17 10:27:19;;;;;;;7.55;3.75;;;15.50;99.90;;;;;;7386814;19;20895;-78
2022/05/17 10:30:08;;;;;;;3.95;3.55;;;15.50;99.90;;;;;;7286342;19;2020014;-79
2022/05/17 10:32:38;;;;;;;4.53;3.38;;;15.50;99.90;;;;;;7283927;19;2004428;-78
2022/05/17 10:35:44;;;;;;;4.00;3.60;;;15.50;99.90;;;;;;7384705;19;21267;-78
2022/05/17 10:38:26;;;;;;;4.63;3.75;;;15.40;99.90;;;;;;7285535;19;2019822;-78
2022/05/17 10:40:53;;;;;;;3.75;3.17;;;15.40;99.90;;;;;;7280365;19;2019896;-79
2022/05/17 10:43:26;;;;;;;4.13;3.67;;;15.60;99.90;;;;;;7388307;19;20332;-78
2022/05/17 10:46:16;;;;;;;5.82;4.00;;;15.80;99.90;;;;;;7387394;19;20325;-78
2022/05/17 10:49:18;;;;;;;5.90;3.60;;;15.80;99.90;;;;;;7289461;19;2019084;-79
2022/05/17 10:52:10;;;;;;;3.88;3.45;;;15.70;99.90;;;;;;7391596;19;20817;-77
2022/05/17 10:54:50;;;;;;;4.45;3.97;;;15.80;99.90;;;;;;7299862;19;2004353;-80
2022/05/17 10:57:28;;;;;;;4.10;3.70;;;15.90;99.90;;;;;;7395361;19;20328;-78
2022/05/17 11:00:01;;;;;;;4.25;3.85;;;16.00;99.90;;;;;;7386900;19;20360;-78
2022/05/17 11:02:48;;;;;;;4.28;3.80;;;15.80;99.90;;;;;;7386075;19;20915;-79
2022/05/17 11:05:35;;;;;;;4.40;3.30;;;15.90;99.90;;;;;;7386088;19;20379;-78
2022/05/17 11:08:14;;;;;;;4.50;3.47;;;16.10;99.90;;;;;;7289045;19;2004345;-77
2022/05/17 11:10:56;;;;;;;5.00;4.43;;;16.40;99.90;;;;;;7284896;19;2004311;-77
2022/05/17 11:13:28;;;;;;;4.45;4.05;;;16.20;99.90;;;;;;7285838;19;2004433;-78
2022/05/17 11:16:01;;;;;;;6.22;4.00;;;16.50;99.90;;;;;;7282157;19;2008880;-79
2022/05/17 11:18:48;;;;;;;4.77;3.93;;;16.70;99.90;;;;;;7383320;19;20336;-77
2022/05/17 11:21:18;;;;;;;4.80;4.33;;;17.00;99.90;;;;;;7277770;19;2019900;-79
2022/05/17 11:23:48;;;;;;;4.72;4.28;;;17.20;99.90;;;;;;7383286;19;20316;-79
2022/05/17 11:26:20;;;;;;;4.65;3.30;;;17.40;99.90;;;;;;7381892;19;20334;-79
2022/05/17 11:28:48;;;;;;;5.07;3.53;;;17.70;99.90;;;;;;7381248;19;20671;-79
2022/05/17 11:31:18;;;;;;;4.60;3.55;;;18.00;99.90;;;;;;7380592;19;20903;-80
2022/05/17 11:33:44;;;;;;;4.00;3.58;;;18.30;99.90;;;;;;7383290;19;20312;-79
2022/05/17 11:36:31;;;;;;;5.37;4.77;;;18.60;99.90;;;;;;7386121;19;20320;-79
2022/05/17 11:38:57;;;;;;;6.90;4.18;;;18.70;99.90;;;;;;7401554;19;20777;-78
2022/05/17 11:41:34;;;;;;;5.72;4.18;;;18.80;99.90;;;;;;7403202;19;20375;-78
2022/05/17 11:44:03;;;;;;;4.75;3.70;;;18.80;99.90;;;;;;7405721;19;20332;-80
2022/05/17 11:46:28;;;;;;;5.55;4.10;;;18.80;99.90;;;;;;7392645;19;20451;-80
2022/05/17 11:48:56;;;;;;;4.03;3.60;;;18.80;99.90;;;;;;7392330;19;20300;-80
2022/05/17 11:51:23;;;;;;;4.07;3.67;;;19.10;99.90;;;;;;7386532;19;20339;-81
2022/05/17 11:53:49;;;;;;;5.23;4.03;;;19.20;99.90;;;;;;7388162;19;20320;-78
2022/05/17 11:56:25;;;;;;;3.67;3.30;;;19.40;99.90;;;;;;7390906;19;20338;-83
2022/05/17 11:58:54;;;;;;;4.90;3.95;;;19.50;99.90;;;;;;7392367;19;20335;-80
2022/05/17 12:01:31;;;;;;;5.30;4.20;;;19.70;99.90;;;;;;7392973;19;21190;-82
2022/05/17 12:04:03;;;;;;;5.35;3.97;;;19.50;99.90;;;;;;7394292;19;20321;-83
2022/05/17 12:06:48;;;;;;;4.10;3.58;;;19.30;99.90;;;;;;7399298;19;20341;-84
2022/05/17 12:09:22;;;;;;;5.00;3.72;;;19.40;99.90;;;;;;7396792;19;20325;-81
2022/05/17 12:12:27;;;;;;;6.20;3.70;;;19.80;99.90;;;;;;7393920;19;20317;-84
2022/05/17 12:15:20;;;;;;;4.68;3.92;;;20.00;99.90;;;;;;7292678;19;2027009;-80
2022/05/17 12:17:46;;;;;;;4.80;3.90;;;20.50;99.90;;;;;;7373351;19;20381;-82
2022/05/17 12:20:33;;;;;;;5.03;4.07;;;20.90;99.90;;;;;;7392822;19;20341;-81
2022/05/17 12:23:11;;;;;;;4.33;3.93;;;21.70;99.90;;;;;;7392419;19;20329;-85
2022/05/17 12:25:41;;;;;;;3.97;3.55;;;22.30;99.90;;;;;;7393230;19;20372;-83
2022/05/17 12:28:10;;;;;;;3.90;3.50;;;22.40;99.90;;;;;;7391006;19;20884;-82
2022/05/17 12:30:54;;;;;;;5.40;3.20;;;22.80;99.90;;;;;;7390416;19;20332;-83
2022/05/17 12:33:36;;;;;;;5.15;4.10;;;22.80;99.90;;;;;;7389164;19;20345;-84
2022/05/17 12:36:14;;;;;;;6.55;4.25;;;22.50;99.90;;;;;;7382972;19;20325;-83
2022/05/17 12:44:19;;;;;;;3.97;3.53;;;23.00;99.90;;;;;;7281224;19;2004283;-82
2022/05/17 12:46:45;;;;;;;5.03;4.13;;;23.50;99.90;;;;;;7383377;19;20323;-85
2022/05/17 12:49:26;;;;;;;4.10;3.70;;;23.40;99.90;;;;;;7384028;19;20350;-83
2022/05/17 12:51:52;;;;;;;5.35;4.32;;;23.60;99.90;;;;;;7379765;19;20373;-85
2022/05/17 12:54:23;;;;;;;4.05;3.65;;;23.30;99.90;;;;;;7379187;19;20345;-81
2022/05/17 12:56:49;;;;;;;4.40;3.90;;;23.50;99.90;;;;;;7382743;19;20316;-83
2022/05/17 12:59:23;;;;;;;4.27;3.80;;;23.20;99.90;;;;;;7383713;19;20848;-86
2022/05/17 13:01:59;;;;;;;4.10;3.70;;;23.30;99.90;;;;;;7377933;19;21195;-80
2022/05/17 13:04:29;;;;;;;4.67;3.70;;;23.40;99.90;;;;;;7381496;19;20361;-84
2022/05/17 13:07:13;;;;;;;6.72;4.43;;;23.60;99.90;;;;;;7389315;19;20320;-84
2022/05/17 13:09:53;;;;;;;6.47;5.15;;;23.70;99.90;;;;;;7392494;19;20348;-84
2022/05/17 13:12:18;;;;;;;5.70;3.85;;;23.40;99.90;;;;;;7387100;19;20335;-81
2022/05/17 13:14:48;;;;;;;5.83;3.50;;;23.30;99.90;;;;;;7390895;19;20399;-84